sensor_id;sensor_type;location;lat;lon;timestamp;P1;durP1;ratioP1;P2;durP2;ratioP2
69678;SDS011;56915;52.046;4.854;2023-01-01T00:01:26;22.03;;;11.10;;
69678;SDS011;56915;52.046;4.854;2023-01-01T00:03:54;21.35;;;9.75;;
69678;SDS011;56915;52.046;4.854;2023-01-01T00:06:23;24.50;;;11.10;;
69678;SDS011;56915;52.046;4.854;2023-01-01T00:08:50;22.75;;;9.43;;
69678;SDS011;56915;52.046;4.854;2023-01-01T00:11:37;18.92;;;8.95;;
69678;SDS011;56915;52.046;4.854;2023-01-01T00:14:04;18.83;;;9.87;;
69678;SDS011;56915;52.046;4.854;2023-01-01T00:16:37;16.30;;;8.32;;
69678;SDS011;56915;52.046;4.854;2023-01-01T00:19:05;17.80;;;8.45;;
69678;SDS011;56915;52.046;4.854;2023-01-01T00:21:32;18.73;;;8.35;;
69678;SDS011;56915;52.046;4.854;2023-01-01T00:23:59;20.85;;;8.88;;
69678;SDS011;56915;52.046;4.854;2023-01-01T00:26:25;20.03;;;8.17;;
69678;SDS011;56915;52.046;4.854;2023-01-01T00:29:00;16.17;;;7.15;;
69678;SDS011;56915;52.046;4.854;2023-01-01T00:31:27;16.65;;;7.10;;
69678;SDS011;56915;52.046;4.854;2023-01-01T00:33:55;19.27;;;6.63;;
69678;SDS011;56915;52.046;4.854;2023-01-01T00:36:23;16.08;;;6.57;;
69678;SDS011;56915;52.046;4.854;2023-01-01T00:38:51;16.07;;;6.23;;
69678;SDS011;56915;52.046;4.854;2023-01-01T00:41:18;12.45;;;5.30;;
69678;SDS011;56915;52.046;4.854;2023-01-01T00:43:45;13.50;;;5.95;;
69678;SDS011;56915;52.046;4.854;2023-01-01T00:46:13;15.18;;;5.80;;
69678;SDS011;56915;52.046;4.854;2023-01-01T00:48:40;14.50;;;5.65;;
69678;SDS011;56915;52.046;4.854;2023-01-01T00:51:07;18.20;;;5.83;;
69678;SDS011;56915;52.046;4.854;2023-01-01T00:53:34;12.27;;;4.95;;
69678;SDS011;56915;52.046;4.854;2023-01-01T00:56:01;15.30;;;4.80;;
69678;SDS011;56915;52.046;4.854;2023-01-01T00:58:29;8.85;;;3.90;;
69678;SDS011;56915;52.046;4.854;2023-01-01T01:00:56;13.48;;;4.82;;
69678;SDS011;56915;52.046;4.854;2023-01-01T01:03:23;12.43;;;4.33;;
69678;SDS011;56915;52.046;4.854;2023-01-01T01:05:54;11.18;;;3.88;;
69678;SDS011;56915;52.046;4.854;2023-01-01T01:08:22;12.30;;;3.42;;
69678;SDS011;56915;52.046;4.854;2023-01-01T01:11:03;13.35;;;3.50;;
69678;SDS011;56915;52.046;4.854;2023-01-01T01:13:34;8.27;;;3.22;;
69678;SDS011;56915;52.046;4.854;2023-01-01T01:16:13;11.77;;;4.00;;
69678;SDS011;56915;52.046;4.854;2023-01-01T01:18:45;10.05;;;3.10;;
69678;SDS011;56915;52.046;4.854;2023-01-01T01:21:15;14.25;;;3.45;;
69678;SDS011;56915;52.046;4.854;2023-01-01T01:23:43;10.27;;;3.38;;
69678;SDS011;56915;52.046;4.854;2023-01-01T01:26:12;8.43;;;3.10;;
69678;SDS011;56915;52.046;4.854;2023-01-01T01:28:46;10.07;;;2.90;;
69678;SDS011;56915;52.046;4.854;2023-01-01T01:31:16;15.20;;;3.40;;
69678;SDS011;56915;52.046;4.854;2023-01-01T01:33:44;8.20;;;3.25;;
69678;SDS011;56915;52.046;4.854;2023-01-01T01:36:11;11.93;;;3.25;;
69678;SDS011;56915;52.046;4.854;2023-01-01T01:38:39;8.70;;;2.90;;
69678;SDS011;56915;52.046;4.854;2023-01-01T01:41:07;9.50;;;3.07;;
69678;SDS011;56915;52.046;4.854;2023-01-01T01:43:59;7.07;;;2.90;;
69678;SDS011;56915;52.046;4.854;2023-01-01T01:46:35;8.60;;;2.97;;
69678;SDS011;56915;52.046;4.854;2023-01-01T01:49:09;9.02;;;2.53;;
69678;SDS011;56915;52.046;4.854;2023-01-01T01:51:43;6.85;;;2.50;;
69678;SDS011;56915;52.046;4.854;2023-01-01T01:54:12;8.10;;;2.40;;
69678;SDS011;56915;52.046;4.854;2023-01-01T01:56:45;8.98;;;2.20;;
69678;SDS011;56915;52.046;4.854;2023-01-01T01:59:21;10.30;;;2.33;;
69678;SDS011;56915;52.046;4.854;2023-01-01T02:02:01;13.85;;;2.60;;
69678;SDS011;56915;52.046;4.854;2023-01-01T02:04:29;5.68;;;2.25;;
69678;SDS011;56915;52.046;4.854;2023-01-01T02:06:56;7.17;;;2.30;;
69678;SDS011;56915;52.046;4.854;2023-01-01T02:09:23;9.82;;;2.20;;
69678;SDS011;56915;52.046;4.854;2023-01-01T02:11:50;8.02;;;2.53;;
69678;SDS011;56915;52.046;4.854;2023-01-01T02:14:17;7.72;;;1.95;;
69678;SDS011;56915;52.046;4.854;2023-01-01T02:16:48;9.70;;;2.15;;
69678;SDS011;56915;52.046;4.854;2023-01-01T02:25:12;9.65;;;1.90;;
69678;SDS011;56915;52.046;4.854;2023-01-01T02:30:28;6.97;;;1.80;;
69678;SDS011;56915;52.046;4.854;2023-01-01T02:32:58;7.50;;;1.83;;
69678;SDS011;56915;52.046;4.854;2023-01-01T02:35:35;10.05;;;2.13;;
69678;SDS011;56915;52.046;4.854;2023-01-01T02:38:18;5.40;;;1.55;;
69678;SDS011;56915;52.046;4.854;2023-01-01T02:40:54;11.77;;;2.25;;
69678;SDS011;56915;52.046;4.854;2023-01-01T02:43:25;6.18;;;1.77;;
69678;SDS011;56915;52.046;4.854;2023-01-01T02:45:52;4.73;;;1.53;;
69678;SDS011;56915;52.046;4.854;2023-01-01T03:02:37;8.73;;;1.55;;
69678;SDS011;56915;52.046;4.854;2023-01-01T03:13:24;7.20;;;1.90;;
69678;SDS011;56915;52.046;4.854;2023-01-01T03:21:49;5.63;;;1.52;;
69678;SDS011;56915;52.046;4.854;2023-01-01T03:24:22;6.63;;;1.40;;
69678;SDS011;56915;52.046;4.854;2023-01-01T03:26:58;10.63;;;2.00;;
69678;SDS011;56915;52.046;4.854;2023-01-01T03:29:34;7.97;;;1.70;;
69678;SDS011;56915;52.046;4.854;2023-01-01T03:32:05;4.53;;;1.35;;
69678;SDS011;56915;52.046;4.854;2023-01-01T03:34:36;8.10;;;1.60;;
69678;SDS011;56915;52.046;4.854;2023-01-01T03:37:07;6.75;;;1.80;;
69678;SDS011;56915;52.046;4.854;2023-01-01T03:39:39;7.10;;;1.80;;
69678;SDS011;56915;52.046;4.854;2023-01-01T03:42:14;8.55;;;1.75;;
69678;SDS011;56915;52.046;4.854;2023-01-01T03:47:19;7.25;;;1.40;;
69678;SDS011;56915;52.046;4.854;2023-01-01T03:49:46;6.35;;;1.60;;
69678;SDS011;56915;52.046;4.854;2023-01-01T03:52:25;7.17;;;1.43;;
69678;SDS011;56915;52.046;4.854;2023-01-01T03:55:15;6.32;;;1.27;;
69678;SDS011;56915;52.046;4.854;2023-01-01T03:58:01;6.88;;;1.55;;
69678;SDS011;56915;52.046;4.854;2023-01-01T04:00:38;4.68;;;1.20;;
69678;SDS011;56915;52.046;4.854;2023-01-01T04:03:15;6.00;;;1.13;;
69678;SDS011;56915;52.046;4.854;2023-01-01T04:05:47;5.57;;;1.10;;
69678;SDS011;56915;52.046;4.854;2023-01-01T04:08:15;7.10;;;1.40;;
69678;SDS011;56915;52.046;4.854;2023-01-01T04:10:47;5.93;;;1.10;;
69678;SDS011;56915;52.046;4.854;2023-01-01T04:13:18;4.75;;;1.10;;
69678;SDS011;56915;52.046;4.854;2023-01-01T04:15:45;4.63;;;1.30;;
69678;SDS011;56915;52.046;4.854;2023-01-01T04:18:12;4.73;;;1.37;;
69678;SDS011;56915;52.046;4.854;2023-01-01T04:20:39;4.35;;;1.20;;
69678;SDS011;56915;52.046;4.854;2023-01-01T04:23:06;6.90;;;1.45;;
69678;SDS011;56915;52.046;4.854;2023-01-01T04:25:32;7.25;;;1.48;;
69678;SDS011;56915;52.046;4.854;2023-01-01T04:27:59;7.00;;;1.25;;
69678;SDS011;56915;52.046;4.854;2023-01-01T04:30:29;8.17;;;1.50;;
69678;SDS011;56915;52.046;4.854;2023-01-01T04:32:56;10.88;;;1.65;;
69678;SDS011;56915;52.046;4.854;2023-01-01T04:35:23;7.90;;;1.42;;
69678;SDS011;56915;52.046;4.854;2023-01-01T04:37:49;7.32;;;1.30;;
69678;SDS011;56915;52.046;4.854;2023-01-01T04:40:16;8.32;;;1.42;;
69678;SDS011;56915;52.046;4.854;2023-01-01T04:42:43;4.77;;;1.30;;
69678;SDS011;56915;52.046;4.854;2023-01-01T04:45:10;8.63;;;1.52;;
69678;SDS011;56915;52.046;4.854;2023-01-01T04:47:40;6.82;;;1.10;;
69678;SDS011;56915;52.046;4.854;2023-01-01T04:50:07;5.28;;;0.95;;
69678;SDS011;56915;52.046;4.854;2023-01-01T04:52:34;6.80;;;1.23;;
69678;SDS011;56915;52.046;4.854;2023-01-01T04:55:01;5.97;;;1.60;;
69678;SDS011;56915;52.046;4.854;2023-01-01T04:57:28;8.90;;;0.93;;
69678;SDS011;56915;52.046;4.854;2023-01-01T04:59:57;4.20;;;1.10;;
69678;SDS011;56915;52.046;4.854;2023-01-01T05:02:23;9.02;;;1.30;;
69678;SDS011;56915;52.046;4.854;2023-01-01T05:04:51;7.25;;;1.85;;
69678;SDS011;56915;52.046;4.854;2023-01-01T05:07:18;7.40;;;1.10;;
69678;SDS011;56915;52.046;4.854;2023-01-01T05:09:45;4.20;;;0.90;;
69678;SDS011;56915;52.046;4.854;2023-01-01T05:12:12;6.18;;;1.17;;
69678;SDS011;56915;52.046;4.854;2023-01-01T05:14:38;5.00;;;0.95;;
69678;SDS011;56915;52.046;4.854;2023-01-01T05:17:05;4.75;;;0.80;;
69678;SDS011;56915;52.046;4.854;2023-01-01T05:19:32;4.20;;;0.83;;
69678;SDS011;56915;52.046;4.854;2023-01-01T05:21:59;4.05;;;0.60;;
69678;SDS011;56915;52.046;4.854;2023-01-01T05:24:33;3.80;;;0.63;;
69678;SDS011;56915;52.046;4.854;2023-01-01T05:27:01;5.55;;;0.80;;
69678;SDS011;56915;52.046;4.854;2023-01-01T05:29:28;7.57;;;0.65;;
69678;SDS011;56915;52.046;4.854;2023-01-01T05:31:55;4.87;;;0.80;;
69678;SDS011;56915;52.046;4.854;2023-01-01T05:34:22;6.63;;;1.00;;
69678;SDS011;56915;52.046;4.854;2023-01-01T05:36:50;6.47;;;1.00;;
69678;SDS011;56915;52.046;4.854;2023-01-01T05:39:17;5.15;;;0.85;;
69678;SDS011;56915;52.046;4.854;2023-01-01T05:41:44;4.07;;;0.77;;
69678;SDS011;56915;52.046;4.854;2023-01-01T05:44:10;4.90;;;0.87;;
69678;SDS011;56915;52.046;4.854;2023-01-01T05:46:37;5.25;;;0.90;;
69678;SDS011;56915;52.046;4.854;2023-01-01T05:49:04;5.90;;;0.82;;
69678;SDS011;56915;52.046;4.854;2023-01-01T05:51:31;4.50;;;0.90;;
69678;SDS011;56915;52.046;4.854;2023-01-01T05:53:57;4.87;;;0.70;;
69678;SDS011;56915;52.046;4.854;2023-01-01T05:56:25;3.63;;;0.63;;
69678;SDS011;56915;52.046;4.854;2023-01-01T05:58:52;4.97;;;0.80;;
69678;SDS011;56915;52.046;4.854;2023-01-01T06:01:23;5.43;;;0.70;;
69678;SDS011;56915;52.046;4.854;2023-01-01T06:03:52;5.38;;;0.80;;
69678;SDS011;56915;52.046;4.854;2023-01-01T06:06:21;4.83;;;0.80;;
69678;SDS011;56915;52.046;4.854;2023-01-01T06:08:51;3.60;;;0.65;;
69678;SDS011;56915;52.046;4.854;2023-01-01T06:11:20;6.13;;;0.60;;
69678;SDS011;56915;52.046;4.854;2023-01-01T06:13:47;5.05;;;0.77;;
69678;SDS011;56915;52.046;4.854;2023-01-01T06:16:13;6.53;;;0.80;;
69678;SDS011;56915;52.046;4.854;2023-01-01T06:18:40;5.53;;;0.80;;
69678;SDS011;56915;52.046;4.854;2023-01-01T06:21:14;3.40;;;0.70;;
69678;SDS011;56915;52.046;4.854;2023-01-01T06:23:42;4.20;;;0.63;;
69678;SDS011;56915;52.046;4.854;2023-01-01T06:26:10;3.88;;;0.73;;
69678;SDS011;56915;52.046;4.854;2023-01-01T06:28:39;6.68;;;0.80;;
69678;SDS011;56915;52.046;4.854;2023-01-01T06:31:07;7.40;;;0.67;;
69678;SDS011;56915;52.046;4.854;2023-01-01T06:33:36;6.13;;;0.60;;
69678;SDS011;56915;52.046;4.854;2023-01-01T06:36:05;5.35;;;0.50;;
69678;SDS011;56915;52.046;4.854;2023-01-01T06:38:34;3.83;;;0.60;;
69678;SDS011;56915;52.046;4.854;2023-01-01T06:41:06;4.03;;;0.57;;
69678;SDS011;56915;52.046;4.854;2023-01-01T06:43:36;4.17;;;0.70;;
69678;SDS011;56915;52.046;4.854;2023-01-01T06:46:16;3.83;;;0.47;;
69678;SDS011;56915;52.046;4.854;2023-01-01T06:48:48;5.03;;;0.50;;
69678;SDS011;56915;52.046;4.854;2023-01-01T06:51:17;4.07;;;0.50;;
69678;SDS011;56915;52.046;4.854;2023-01-01T06:53:46;8.27;;;0.70;;
69678;SDS011;56915;52.046;4.854;2023-01-01T06:56:14;5.50;;;0.40;;
69678;SDS011;56915;52.046;4.854;2023-01-01T06:58:42;4.15;;;0.45;;
69678;SDS011;56915;52.046;4.854;2023-01-01T07:01:19;5.60;;;0.80;;
69678;SDS011;56915;52.046;4.854;2023-01-01T07:03:51;5.50;;;0.68;;
69678;SDS011;56915;52.046;4.854;2023-01-01T07:06:25;4.97;;;0.50;;
69678;SDS011;56915;52.046;4.854;2023-01-01T07:08:54;2.87;;;0.50;;
69678;SDS011;56915;52.046;4.854;2023-01-01T07:11:21;2.53;;;0.45;;
69678;SDS011;56915;52.046;4.854;2023-01-01T07:13:48;7.00;;;0.77;;
69678;SDS011;56915;52.046;4.854;2023-01-01T07:16:15;3.65;;;0.60;;
69678;SDS011;56915;52.046;4.854;2023-01-01T07:18:42;4.35;;;0.60;;
69678;SDS011;56915;52.046;4.854;2023-01-01T07:21:30;5.03;;;0.50;;
69678;SDS011;56915;52.046;4.854;2023-01-01T07:23:59;6.25;;;0.60;;
69678;SDS011;56915;52.046;4.854;2023-01-01T07:26:27;5.35;;;0.95;;
69678;SDS011;56915;52.046;4.854;2023-01-01T07:28:55;4.45;;;0.50;;
69678;SDS011;56915;52.046;4.854;2023-01-01T07:31:32;4.65;;;0.80;;
69678;SDS011;56915;52.046;4.854;2023-01-01T07:34:00;5.40;;;0.60;;
69678;SDS011;56915;52.046;4.854;2023-01-01T07:36:27;4.25;;;0.60;;
69678;SDS011;56915;52.046;4.854;2023-01-01T07:38:54;5.13;;;0.60;;
69678;SDS011;56915;52.046;4.854;2023-01-01T07:41:20;5.53;;;0.63;;
69678;SDS011;56915;52.046;4.854;2023-01-01T07:43:47;4.43;;;0.70;;
69678;SDS011;56915;52.046;4.854;2023-01-01T07:46:14;3.10;;;0.40;;
69678;SDS011;56915;52.046;4.854;2023-01-01T07:48:44;5.80;;;0.40;;
69678;SDS011;56915;52.046;4.854;2023-01-01T07:51:11;9.30;;;0.77;;
69678;SDS011;56915;52.046;4.854;2023-01-01T07:53:38;5.95;;;0.80;;
69678;SDS011;56915;52.046;4.854;2023-01-01T07:56:05;6.60;;;0.73;;
69678;SDS011;56915;52.046;4.854;2023-01-01T07:58:32;5.40;;;0.47;;
69678;SDS011;56915;52.046;4.854;2023-01-01T08:00:59;4.90;;;0.57;;
69678;SDS011;56915;52.046;4.854;2023-01-01T08:03:26;3.28;;;0.52;;
69678;SDS011;56915;52.046;4.854;2023-01-01T08:05:53;6.25;;;0.70;;
69678;SDS011;56915;52.046;4.854;2023-01-01T08:08:19;6.45;;;0.65;;
69678;SDS011;56915;52.046;4.854;2023-01-01T08:10:46;6.73;;;0.50;;
69678;SDS011;56915;52.046;4.854;2023-01-01T08:13:13;8.32;;;0.55;;
69678;SDS011;56915;52.046;4.854;2023-01-01T08:15:40;5.75;;;0.50;;
69678;SDS011;56915;52.046;4.854;2023-01-01T08:18:08;5.20;;;0.60;;
69678;SDS011;56915;52.046;4.854;2023-01-01T08:20:34;5.18;;;0.70;;
69678;SDS011;56915;52.046;4.854;2023-01-01T08:23:01;6.73;;;0.47;;
69678;SDS011;56915;52.046;4.854;2023-01-01T08:25:33;6.82;;;0.47;;
69678;SDS011;56915;52.046;4.854;2023-01-01T08:28:00;6.28;;;0.68;;
69678;SDS011;56915;52.046;4.854;2023-01-01T08:30:26;6.43;;;0.80;;
69678;SDS011;56915;52.046;4.854;2023-01-01T08:32:53;7.03;;;0.60;;
69678;SDS011;56915;52.046;4.854;2023-01-01T08:35:20;4.63;;;0.70;;
69678;SDS011;56915;52.046;4.854;2023-01-01T08:37:47;6.18;;;0.63;;
69678;SDS011;56915;52.046;4.854;2023-01-01T08:40:13;7.95;;;0.60;;
69678;SDS011;56915;52.046;4.854;2023-01-01T08:42:40;7.63;;;1.08;;
69678;SDS011;56915;52.046;4.854;2023-01-01T08:45:07;7.13;;;0.60;;
69678;SDS011;56915;52.046;4.854;2023-01-01T08:47:35;6.00;;;0.67;;
69678;SDS011;56915;52.046;4.854;2023-01-01T08:50:02;5.07;;;0.70;;
69678;SDS011;56915;52.046;4.854;2023-01-01T08:52:29;8.90;;;0.70;;
69678;SDS011;56915;52.046;4.854;2023-01-01T08:54:58;6.60;;;0.80;;
69678;SDS011;56915;52.046;4.854;2023-01-01T08:57:28;6.05;;;0.82;;
69678;SDS011;56915;52.046;4.854;2023-01-01T08:59:57;10.57;;;1.00;;
69678;SDS011;56915;52.046;4.854;2023-01-01T09:02:24;5.70;;;0.70;;
69678;SDS011;56915;52.046;4.854;2023-01-01T09:04:51;7.93;;;0.73;;
69678;SDS011;56915;52.046;4.854;2023-01-01T09:07:19;6.97;;;0.88;;
69678;SDS011;56915;52.046;4.854;2023-01-01T09:09:46;5.60;;;0.80;;
69678;SDS011;56915;52.046;4.854;2023-01-01T09:12:13;8.67;;;0.97;;
69678;SDS011;56915;52.046;4.854;2023-01-01T09:14:41;7.53;;;1.00;;
69678;SDS011;56915;52.046;4.854;2023-01-01T09:17:09;4.78;;;0.80;;
69678;SDS011;56915;52.046;4.854;2023-01-01T09:19:36;6.70;;;0.90;;
69678;SDS011;56915;52.046;4.854;2023-01-01T09:22:03;7.03;;;0.77;;
69678;SDS011;56915;52.046;4.854;2023-01-01T09:24:34;10.37;;;1.13;;
69678;SDS011;56915;52.046;4.854;2023-01-01T09:27:00;15.88;;;1.38;;
69678;SDS011;56915;52.046;4.854;2023-01-01T09:29:27;5.10;;;0.88;;
69678;SDS011;56915;52.046;4.854;2023-01-01T09:31:54;7.25;;;0.95;;
69678;SDS011;56915;52.046;4.854;2023-01-01T09:34:21;5.32;;;0.70;;
69678;SDS011;56915;52.046;4.854;2023-01-01T09:36:48;4.93;;;0.60;;
69678;SDS011;56915;52.046;4.854;2023-01-01T09:39:14;5.53;;;0.70;;
69678;SDS011;56915;52.046;4.854;2023-01-01T09:44:26;7.75;;;0.70;;
69678;SDS011;56915;52.046;4.854;2023-01-01T09:47:21;4.10;;;0.60;;
69678;SDS011;56915;52.046;4.854;2023-01-01T09:49:55;6.80;;;0.90;;
69678;SDS011;56915;52.046;4.854;2023-01-01T09:52:40;4.50;;;0.55;;
69678;SDS011;56915;52.046;4.854;2023-01-01T09:55:15;4.13;;;0.70;;
69678;SDS011;56915;52.046;4.854;2023-01-01T09:58:04;7.78;;;0.70;;
69678;SDS011;56915;52.046;4.854;2023-01-01T10:00:31;7.70;;;0.90;;
69678;SDS011;56915;52.046;4.854;2023-01-01T10:11:01;9.65;;;1.05;;
69678;SDS011;56915;52.046;4.854;2023-01-01T10:13:49;7.47;;;0.80;;
69678;SDS011;56915;52.046;4.854;2023-01-01T10:18:51;10.05;;;0.80;;
69678;SDS011;56915;52.046;4.854;2023-01-01T10:21:22;4.13;;;0.70;;
69678;SDS011;56915;52.046;4.854;2023-01-01T10:23:54;5.95;;;0.95;;
69678;SDS011;56915;52.046;4.854;2023-01-01T10:26:25;7.05;;;0.95;;
69678;SDS011;56915;52.046;4.854;2023-01-01T10:29:05;12.40;;;1.10;;
69678;SDS011;56915;52.046;4.854;2023-01-01T10:31:35;10.45;;;1.92;;
69678;SDS011;56915;52.046;4.854;2023-01-01T10:36:45;7.50;;;1.08;;
69678;SDS011;56915;52.046;4.854;2023-01-01T10:39:15;6.13;;;0.90;;
69678;SDS011;56915;52.046;4.854;2023-01-01T10:41:43;7.07;;;1.40;;
69678;SDS011;56915;52.046;4.854;2023-01-01T10:44:11;9.57;;;1.08;;
69678;SDS011;56915;52.046;4.854;2023-01-01T10:46:39;10.15;;;1.20;;
69678;SDS011;56915;52.046;4.854;2023-01-01T10:49:15;9.07;;;1.40;;
69678;SDS011;56915;52.046;4.854;2023-01-01T10:51:43;6.22;;;1.30;;
69678;SDS011;56915;52.046;4.854;2023-01-01T10:54:35;10.90;;;1.50;;
69678;SDS011;56915;52.046;4.854;2023-01-01T11:00:19;5.55;;;1.30;;
69678;SDS011;56915;52.046;4.854;2023-01-01T11:08:32;7.17;;;1.00;;
69678;SDS011;56915;52.046;4.854;2023-01-01T11:11:02;8.48;;;1.17;;
69678;SDS011;56915;52.046;4.854;2023-01-01T11:13:30;6.47;;;1.15;;
69678;SDS011;56915;52.046;4.854;2023-01-01T11:15:58;8.85;;;1.10;;
69678;SDS011;56915;52.046;4.854;2023-01-01T11:18:29;8.35;;;1.05;;
69678;SDS011;56915;52.046;4.854;2023-01-01T11:21:02;8.83;;;1.30;;
69678;SDS011;56915;52.046;4.854;2023-01-01T11:26:04;7.18;;;1.10;;
69678;SDS011;56915;52.046;4.854;2023-01-01T11:28:32;5.88;;;0.90;;
69678;SDS011;56915;52.046;4.854;2023-01-01T11:31:01;10.18;;;1.10;;
69678;SDS011;56915;52.046;4.854;2023-01-01T11:33:38;7.00;;;1.13;;
69678;SDS011;56915;52.046;4.854;2023-01-01T11:36:49;7.78;;;1.30;;
69678;SDS011;56915;52.046;4.854;2023-01-01T11:41:55;8.60;;;1.30;;
69678;SDS011;56915;52.046;4.854;2023-01-01T11:44:42;6.28;;;1.48;;
69678;SDS011;56915;52.046;4.854;2023-01-01T11:47:20;8.13;;;1.73;;
69678;SDS011;56915;52.046;4.854;2023-01-01T11:50:37;8.32;;;1.55;;
69678;SDS011;56915;52.046;4.854;2023-01-01T11:53:16;9.50;;;2.90;;
69678;SDS011;56915;52.046;4.854;2023-01-01T11:55:53;9.00;;;2.03;;
69678;SDS011;56915;52.046;4.854;2023-01-01T12:04:35;6.25;;;1.60;;
69678;SDS011;56915;52.046;4.854;2023-01-01T12:07:07;8.63;;;1.65;;
69678;SDS011;56915;52.046;4.854;2023-01-01T12:15:16;7.43;;;1.73;;
69678;SDS011;56915;52.046;4.854;2023-01-01T12:17:54;8.75;;;1.50;;
69678;SDS011;56915;52.046;4.854;2023-01-01T12:23:16;6.57;;;1.30;;
69678;SDS011;56915;52.046;4.854;2023-01-01T12:25:45;6.85;;;1.33;;
69678;SDS011;56915;52.046;4.854;2023-01-01T12:34:18;10.57;;;1.55;;
69678;SDS011;56915;52.046;4.854;2023-01-01T12:37:29;10.70;;;1.90;;
69678;SDS011;56915;52.046;4.854;2023-01-01T12:39:52;8.60;;;2.10;;
69678;SDS011;56915;52.046;4.854;2023-01-01T12:50:57;10.95;;;1.52;;
69678;SDS011;56915;52.046;4.854;2023-01-01T12:58:36;10.73;;;2.05;;
69678;SDS011;56915;52.046;4.854;2023-01-01T13:01:19;9.63;;;1.77;;
69678;SDS011;56915;52.046;4.854;2023-01-01T13:04:00;9.02;;;2.00;;
69678;SDS011;56915;52.046;4.854;2023-01-01T13:06:52;9.07;;;2.90;;
69678;SDS011;56915;52.046;4.854;2023-01-01T13:09:32;11.73;;;2.27;;
69678;SDS011;56915;52.046;4.854;2023-01-01T13:12:05;10.65;;;1.60;;
69678;SDS011;56915;52.046;4.854;2023-01-01T13:14:41;9.52;;;1.88;;
69678;SDS011;56915;52.046;4.854;2023-01-01T13:17:21;10.18;;;2.13;;
69678;SDS011;56915;52.046;4.854;2023-01-01T13:19:56;15.18;;;2.58;;
69678;SDS011;56915;52.046;4.854;2023-01-01T13:33:09;9.98;;;2.55;;
69678;SDS011;56915;52.046;4.854;2023-01-01T13:51:55;7.93;;;1.70;;
69678;SDS011;56915;52.046;4.854;2023-01-01T14:02:58;10.47;;;2.00;;
69678;SDS011;56915;52.046;4.854;2023-01-01T14:05:32;9.88;;;3.17;;
69678;SDS011;56915;52.046;4.854;2023-01-01T14:08:33;15.00;;;2.55;;
69678;SDS011;56915;52.046;4.854;2023-01-01T14:11:02;9.65;;;1.70;;
69678;SDS011;56915;52.046;4.854;2023-01-01T14:13:43;8.82;;;2.17;;
69678;SDS011;56915;52.046;4.854;2023-01-01T14:16:10;11.90;;;1.70;;
69678;SDS011;56915;52.046;4.854;2023-01-01T14:21:12;9.38;;;1.70;;
69678;SDS011;56915;52.046;4.854;2023-01-01T14:23:44;9.20;;;1.38;;
69678;SDS011;56915;52.046;4.854;2023-01-01T14:26:19;12.95;;;2.38;;
69678;SDS011;56915;52.046;4.854;2023-01-01T14:28:51;13.27;;;1.40;;
69678;SDS011;56915;52.046;4.854;2023-01-01T14:31:20;8.05;;;1.63;;
69678;SDS011;56915;52.046;4.854;2023-01-01T14:33:51;11.77;;;2.00;;
69678;SDS011;56915;52.046;4.854;2023-01-01T14:36:22;7.70;;;1.60;;
69678;SDS011;56915;52.046;4.854;2023-01-01T14:38:57;10.85;;;1.77;;
69678;SDS011;56915;52.046;4.854;2023-01-01T14:41:32;12.30;;;1.50;;
69678;SDS011;56915;52.046;4.854;2023-01-01T14:44:11;10.82;;;1.60;;
69678;SDS011;56915;52.046;4.854;2023-01-01T14:46:47;11.13;;;2.00;;
69678;SDS011;56915;52.046;4.854;2023-01-01T14:49:16;9.73;;;1.90;;
69678;SDS011;56915;52.046;4.854;2023-01-01T14:51:53;7.70;;;1.55;;
69678;SDS011;56915;52.046;4.854;2023-01-01T14:54:35;12.70;;;1.50;;
69678;SDS011;56915;52.046;4.854;2023-01-01T14:57:08;7.22;;;1.90;;
69678;SDS011;56915;52.046;4.854;2023-01-01T14:59:44;7.43;;;1.73;;
69678;SDS011;56915;52.046;4.854;2023-01-01T15:02:36;9.20;;;1.60;;
69678;SDS011;56915;52.046;4.854;2023-01-01T15:07:55;8.53;;;1.83;;
69678;SDS011;56915;52.046;4.854;2023-01-01T15:10:24;7.97;;;1.60;;
69678;SDS011;56915;52.046;4.854;2023-01-01T15:12:55;11.55;;;1.75;;
69678;SDS011;56915;52.046;4.854;2023-01-01T15:15:36;6.50;;;1.70;;
69678;SDS011;56915;52.046;4.854;2023-01-01T15:18:05;11.20;;;2.03;;
69678;SDS011;56915;52.046;4.854;2023-01-01T15:20:52;8.30;;;1.60;;
69678;SDS011;56915;52.046;4.854;2023-01-01T15:23:20;10.10;;;1.90;;
69678;SDS011;56915;52.046;4.854;2023-01-01T15:25:47;10.13;;;1.92;;
69678;SDS011;56915;52.046;4.854;2023-01-01T15:28:17;10.00;;;1.60;;
69678;SDS011;56915;52.046;4.854;2023-01-01T15:30:53;7.22;;;1.50;;
69678;SDS011;56915;52.046;4.854;2023-01-01T15:33:21;9.73;;;1.93;;
69678;SDS011;56915;52.046;4.854;2023-01-01T15:35:49;10.32;;;2.20;;
69678;SDS011;56915;52.046;4.854;2023-01-01T15:40:56;10.13;;;2.00;;
69678;SDS011;56915;52.046;4.854;2023-01-01T15:43:27;10.90;;;1.98;;
69678;SDS011;56915;52.046;4.854;2023-01-01T15:45:56;12.97;;;2.57;;
69678;SDS011;56915;52.046;4.854;2023-01-01T15:48:30;13.15;;;2.20;;
69678;SDS011;56915;52.046;4.854;2023-01-01T15:51:00;8.73;;;1.70;;
69678;SDS011;56915;52.046;4.854;2023-01-01T15:53:36;10.38;;;1.90;;
69678;SDS011;56915;52.046;4.854;2023-01-01T15:56:20;8.13;;;1.90;;
69678;SDS011;56915;52.046;4.854;2023-01-01T15:58:55;10.83;;;1.90;;
69678;SDS011;56915;52.046;4.854;2023-01-01T16:01:35;8.23;;;2.08;;
69678;SDS011;56915;52.046;4.854;2023-01-01T16:06:54;8.77;;;2.00;;
69678;SDS011;56915;52.046;4.854;2023-01-01T16:09:23;9.05;;;2.00;;
69678;SDS011;56915;52.046;4.854;2023-01-01T16:11:53;11.37;;;2.00;;
69678;SDS011;56915;52.046;4.854;2023-01-01T16:14:22;7.97;;;1.70;;
69678;SDS011;56915;52.046;4.854;2023-01-01T16:16:53;9.80;;;2.20;;
69678;SDS011;56915;52.046;4.854;2023-01-01T16:19:23;9.73;;;2.17;;
69678;SDS011;56915;52.046;4.854;2023-01-01T16:21:50;9.85;;;2.15;;
69678;SDS011;56915;52.046;4.854;2023-01-01T16:24:17;7.70;;;1.73;;
69678;SDS011;56915;52.046;4.854;2023-01-01T16:26:45;9.15;;;2.13;;
69678;SDS011;56915;52.046;4.854;2023-01-01T16:29:13;8.30;;;1.90;;
69678;SDS011;56915;52.046;4.854;2023-01-01T16:31:40;10.63;;;2.25;;
69678;SDS011;56915;52.046;4.854;2023-01-01T16:34:12;11.85;;;3.20;;
69678;SDS011;56915;52.046;4.854;2023-01-01T16:36:40;13.67;;;3.00;;
69678;SDS011;56915;52.046;4.854;2023-01-01T16:39:07;13.85;;;3.35;;
69678;SDS011;56915;52.046;4.854;2023-01-01T16:41:34;12.00;;;3.20;;
69678;SDS011;56915;52.046;4.854;2023-01-01T16:44:01;9.65;;;2.65;;
69678;SDS011;56915;52.046;4.854;2023-01-01T16:46:28;15.20;;;2.55;;
69678;SDS011;56915;52.046;4.854;2023-01-01T16:48:55;9.17;;;2.80;;
69678;SDS011;56915;52.046;4.854;2023-01-01T16:51:23;15.77;;;3.25;;
69678;SDS011;56915;52.046;4.854;2023-01-01T16:53:53;12.63;;;2.70;;
69678;SDS011;56915;52.046;4.854;2023-01-01T16:56:20;11.40;;;2.92;;
69678;SDS011;56915;52.046;4.854;2023-01-01T16:58:47;12.43;;;2.92;;
69678;SDS011;56915;52.046;4.854;2023-01-01T17:01:18;7.50;;;3.10;;
69678;SDS011;56915;52.046;4.854;2023-01-01T17:03:46;11.77;;;2.83;;
69678;SDS011;56915;52.046;4.854;2023-01-01T17:06:13;9.95;;;2.95;;
69678;SDS011;56915;52.046;4.854;2023-01-01T17:08:40;8.48;;;2.92;;
69678;SDS011;56915;52.046;4.854;2023-01-01T17:11:08;14.85;;;2.53;;
69678;SDS011;56915;52.046;4.854;2023-01-01T17:13:43;12.33;;;2.23;;
69678;SDS011;56915;52.046;4.854;2023-01-01T17:16:11;10.48;;;2.10;;
69678;SDS011;56915;52.046;4.854;2023-01-01T17:18:49;9.65;;;2.40;;
69678;SDS011;56915;52.046;4.854;2023-01-01T17:21:36;10.23;;;2.03;;
69678;SDS011;56915;52.046;4.854;2023-01-01T17:24:03;13.25;;;2.85;;
69678;SDS011;56915;52.046;4.854;2023-01-01T17:26:30;22.17;;;3.50;;
69678;SDS011;56915;52.046;4.854;2023-01-01T17:28:59;15.85;;;3.10;;
69678;SDS011;56915;52.046;4.854;2023-01-01T17:31:26;11.25;;;2.58;;
69678;SDS011;56915;52.046;4.854;2023-01-01T17:33:54;9.07;;;2.70;;
69678;SDS011;56915;52.046;4.854;2023-01-01T17:36:21;14.70;;;2.85;;